This demonstration page uses our WeatherBlox Daily Observations layout. Learn more.

38.88101, -77.10428

Hourly Observations for September 23, 2015

Temp ( °F °C ) Dew Point ( °F °C ) Humidity (%) Winds ( mph kmh ) Pressure ( in mb ) Visibility ( mi km ) Precip ( " mm )
12:52 am 00:52 Mostly Cloudy 66 18.9 57 13.9 73 73 NNE 7 11 30.22 1023 10 16.0934 0 0
1:52 am 01:52 Mostly Cloudy 66 18.9 58 14.4 75 75 NE 9 15 30.22 1023 10 16.0934 0 0
2:52 am 02:52 Mostly Cloudy 65 18.3 57 13.9 76 76 N 8 13 30.22 1024 10 16.0934 0 0
3:52 am 03:52 Mostly Cloudy 62 16.7 57 13.9 84 84 NNW 9 15 30.22 1023 10 16.0934 0 0
4:52 am 04:52 Partly Cloudy 61 16.1 57 13.9 87 87 NNW 8 13 30.22 1024 10 16.0934 0 0
5:52 am 05:52 Mostly Clear 63 17.2 57 13.9 81 81 NNE 7 11 30.23 1024 10 16.0934 0 0
6:52 am 06:52 Mostly Clear 62 16.7 57 13.9 84 84 NNE 10 17 30.24 1024 10 16.0934 0 0
7:52 am 07:52 Mostly Sunny 63 17.2 57 13.9 81 81 NNE 8 13 30.25 1024 10 16.0934 0 0
8:52 am 08:52 Partly Cloudy 66 18.9 56 13.3 70 70 NNE 13 20 30.26 1025 10 16.0934 0 0
9:52 am 09:52 Partly Cloudy 69 20.6 57 13.9 66 66 NE 15 24 30.27 1025 10 16.0934 0 0
10:52 am 10:52 Partly Cloudy 72 22.2 55 12.8 55 55 NNE 15 24 30.26 1025 10 16.0934 0 0
11:52 am 11:52 Partly Cloudy 74 23.3 52 11.1 46 46 NE 15 24 30.25 1024 10 16.0934 0 0
12:52 pm 12:52 Mostly Cloudy 76 24.4 50 10 40 40 VRB 3 6 30.25 1024 10 16.0934 0 0
1:52 pm 13:52 Mostly Cloudy 78 25.6 48 8.9 35 35 NNE 13 20 30.23 1024 10 16.0934 0 0
3:52 pm 15:52 Partly Cloudy 80 26.7 45 7.2 29 29 NE 6 9 30.2 1023 10 16.0934 0 0
4:52 pm 16:52 Partly Cloudy 78 25.6 44 6.7 30 30 ENE 13 20 30.19 1022 10 16.0934 0 0
5:52 pm 17:52 Partly Cloudy 77 25 46 7.8 33 33 E 9 15 30.19 1022 10 16.0934 0 0
6:52 pm 18:52 Partly Cloudy 74 23.3 49 9.4 41 41 E 8 13 30.2 1023 10 16.0934 0 0
7:52 pm 19:52 Partly Cloudy 72 22.2 50 10 46 46 ENE 3 6 30.19 1023 10 16.0934 0 0
8:52 pm 20:52 Partly Cloudy 72 22.2 53 11.7 52 52 NE 3 6 30.2 1023 10 16.0934 0 0
9:52 pm 21:52 Partly Cloudy 68 20 53 11.7 59 59 N 7 11 30.2 1023 10 16.0934 0 0
10:52 pm 22:52 Mostly Cloudy 67 19.4 55 12.8 66 66 N 6 9 30.22 1023 10 16.0934 0 0
11:52 pm 23:52 Mostly Cloudy 65 18.3 56 13.3 73 73 N 3 6 30.22 1023 10 16.0934 0 0

Powered by AerisWeather